createdAt,value
2018-11-05T10:50:15.088Z,52.27
2018-11-05T10:52:47.428Z,55.30
2018-11-05T10:55:17.941Z,55.67
2018-11-05T10:57:49.152Z,57.37
2018-11-05T11:00:27.306Z,57.73
2018-11-05T11:03:02.991Z,58.20
2018-11-05T11:05:33.379Z,55.73
2018-11-05T11:08:03.759Z,59.67
2018-11-05T11:10:34.432Z,59.87
2018-11-05T11:13:04.579Z,58.73
2018-11-05T11:15:35.620Z,59.50
2018-11-05T11:18:06.546Z,59.20
2018-11-05T11:20:36.708Z,58.80
2018-11-05T11:23:07.547Z,58.27
2018-11-05T11:25:38.046Z,58.10
2018-11-05T11:28:08.570Z,58.10
2018-11-05T11:30:39.788Z,59.27
2018-11-05T11:33:10.537Z,57.23
2018-11-05T11:35:40.638Z,58.37
2018-11-05T11:38:10.835Z,57.00
2018-11-05T11:40:41.697Z,55.97
2018-11-05T11:43:11.825Z,56.63
2018-11-05T11:45:42.112Z,56.83
2018-11-05T11:48:12.181Z,56.47
2018-11-05T11:50:42.553Z,56.97
2018-11-05T11:53:12.661Z,56.80
2018-11-05T11:55:42.664Z,55.97
2018-11-05T11:58:13.515Z,56.37
2018-11-05T12:00:43.667Z,54.80
2018-11-05T12:03:13.835Z,57.37
2018-11-05T12:05:44.476Z,55.60
2018-11-05T12:08:14.976Z,55.93
2018-11-05T12:10:45.148Z,55.67
2018-11-05T12:13:16.099Z,54.77
2018-11-05T12:15:46.493Z,52.77
2018-11-05T12:18:17.460Z,52.97
2018-11-05T12:20:47.563Z,54.43
2018-11-05T12:23:17.725Z,52.50
2018-11-05T12:25:47.905Z,53.73
2018-11-05T12:28:17.866Z,52.80
2018-11-05T12:30:48.422Z,53.27
2018-11-05T12:33:18.586Z,53.73
2018-11-05T12:35:48.965Z,52.57
2018-11-05T12:38:19.178Z,51.77
2018-11-05T12:40:49.724Z,51.93
2018-11-05T12:43:21.164Z,51.23
2018-11-05T12:45:52.102Z,53.10
2018-11-05T12:48:22.074Z,51.80
2018-11-05T12:50:52.053Z,51.10
2018-11-05T12:53:22.471Z,51.53
2018-11-05T12:55:52.530Z,52.73
2018-11-05T12:58:22.804Z,50.70
2018-11-05T13:00:53.025Z,51.30
2018-11-05T13:03:23.272Z,51.50
2018-11-05T13:05:53.524Z,51.70
2018-11-05T13:08:24.851Z,52.20
2018-11-05T13:10:55.080Z,51.17
2018-11-05T13:13:25.532Z,52.97
2018-11-05T13:15:55.773Z,51.93
2018-11-05T13:18:26.050Z,53.57
2018-11-05T13:20:56.375Z,53.67
2018-11-05T13:23:31.846Z,54.07
2018-11-05T13:26:02.249Z,52.77
2018-11-05T13:28:33.243Z,51.83
2018-11-05T13:31:03.737Z,53.23
2018-11-05T13:33:33.897Z,51.83
2018-11-05T13:36:04.337Z,51.70
2018-11-05T13:38:34.624Z,51.97
2018-11-05T13:41:05.121Z,51.57
2018-11-05T13:43:36.659Z,51.83
2018-11-05T13:46:07.130Z,51.63
2018-11-05T13:48:37.562Z,50.83
2018-11-05T13:51:07.802Z,52.17
2018-11-05T13:53:37.837Z,51.17
2018-11-05T13:56:08.568Z,50.73
2018-11-05T13:58:39.228Z,51.50
2018-11-05T14:01:09.634Z,50.63
2018-11-05T14:03:39.761Z,51.93
2018-11-05T14:06:10.405Z,52.00
2018-11-05T14:08:41.280Z,50.37
2018-11-05T14:11:11.475Z,50.80
2018-11-05T14:13:41.677Z,51.20
2018-11-05T14:16:11.907Z,51.33
2018-11-05T14:18:42.268Z,50.97
2018-11-05T14:21:12.453Z,51.17
2018-11-05T14:23:42.578Z,51.03
2018-11-05T14:26:13.115Z,50.07
2018-11-05T14:28:43.265Z,50.87
2018-11-05T14:31:13.577Z,51.47
2018-11-05T14:33:43.434Z,51.27
2018-11-05T14:36:13.350Z,50.63
2018-11-05T14:38:43.775Z,50.53
2018-11-05T14:41:13.830Z,52.93
2018-11-05T14:43:44.051Z,51.60
2018-11-05T14:46:14.813Z,51.60
2018-11-05T14:48:45.571Z,50.33
2018-11-05T14:51:17.521Z,51.20
2018-11-05T14:53:47.754Z,49.07
2018-11-05T14:56:17.755Z,49.63
2018-11-05T14:58:49.556Z,49.90
2018-11-05T15:01:21.486Z,50.80
2018-11-05T15:03:53.192Z,48.80
2018-11-05T15:06:25.406Z,48.53
2018-11-05T15:08:57.457Z,49.37
2018-11-05T15:11:29.218Z,51.03
2018-11-05T15:14:01.088Z,50.53
2018-11-05T15:16:33.695Z,50.83
2018-11-05T15:19:05.983Z,51.73
2018-11-05T15:21:37.730Z,52.97
2018-11-05T15:24:09.484Z,52.93
2018-11-05T15:26:41.805Z,52.30
2018-11-05T15:29:13.675Z,53.60
2018-11-05T15:31:45.768Z,52.43
2018-11-05T15:34:17.689Z,52.10
2018-11-05T15:36:51.474Z,51.23
2018-11-05T15:39:24.602Z,51.20
2018-11-05T15:41:56.474Z,52.80
2018-11-05T15:44:28.528Z,53.07
2018-11-05T15:47:00.908Z,52.97
2018-11-05T15:49:32.636Z,54.70
2018-11-05T15:52:05.772Z,53.20
2018-11-05T15:54:37.687Z,52.30
2018-11-05T15:57:10.119Z,52.37
2018-11-05T15:59:41.733Z,51.97
2018-11-05T16:02:14.548Z,52.43
2018-11-05T16:04:46.773Z,51.57
2018-11-05T16:07:19.952Z,51.63
2018-11-05T16:09:53.204Z,50.80
2018-11-05T16:12:24.632Z,52.23
2018-11-05T16:14:57.454Z,52.07
2018-11-05T16:17:29.754Z,51.80
2018-11-05T16:20:01.365Z,52.93
2018-11-05T16:22:33.623Z,53.70
2018-11-05T16:25:05.874Z,53.53
2018-11-05T16:27:37.717Z,52.80
2018-11-05T16:30:13.728Z,51.87
2018-11-05T16:32:46.969Z,52.73
2018-11-05T16:35:19.403Z,53.47
2018-11-05T16:37:52.452Z,52.03
2018-11-05T16:40:24.542Z,51.20
2018-11-05T16:42:56.583Z,52.63
2018-11-05T16:45:26.879Z,52.93
2018-11-05T16:47:57.531Z,54.53
2018-11-05T16:50:28.972Z,53.63
2018-11-05T16:53:00.415Z,54.37
2018-11-05T16:55:30.498Z,53.83
2018-11-05T16:58:00.964Z,53.70
2018-11-05T17:00:31.275Z,56.67
2018-11-05T17:03:01.627Z,56.60
2018-11-05T17:05:31.690Z,55.27
2018-11-05T17:08:02.040Z,55.27
2018-11-05T17:10:32.309Z,53.77
2018-11-05T17:13:03.370Z,54.73
2018-11-05T17:15:33.947Z,53.97
2018-11-05T17:18:04.568Z,53.87
2018-11-05T17:20:35.028Z,54.57
2018-11-05T17:23:05.093Z,53.50
2018-11-05T17:25:35.003Z,53.73
2018-11-05T17:28:05.300Z,52.83
2018-11-05T17:30:35.595Z,53.87
2018-11-05T17:33:06.131Z,56.10
2018-11-05T17:35:36.272Z,55.30
2018-11-05T17:38:07.015Z,54.77
2018-11-05T17:40:37.332Z,55.70
2018-11-05T17:43:07.480Z,56.07
2018-11-05T17:45:37.551Z,56.20
2018-11-05T17:48:07.632Z,60.80
2018-11-05T17:50:37.930Z,58.97
2018-11-05T17:53:08.222Z,56.93
2018-11-05T17:55:39.047Z,55.40
2018-11-05T17:58:10.085Z,54.70
2018-11-05T18:00:40.585Z,56.77
2018-11-05T18:03:10.552Z,57.43
2018-11-05T18:05:41.217Z,56.87
2018-11-05T18:08:11.680Z,54.90
2018-11-05T18:10:42.076Z,55.37
2018-11-05T18:13:12.459Z,55.67
2018-11-05T18:15:43.736Z,57.37
2018-11-05T18:18:14.525Z,55.33
2018-11-05T18:20:44.696Z,56.07
2018-11-05T18:23:15.221Z,58.77
2018-11-05T18:25:45.375Z,56.20
2018-11-05T18:28:15.921Z,56.13
2018-11-05T18:30:46.018Z,56.40
2018-11-05T18:33:16.034Z,58.13
2018-11-05T18:35:46.487Z,57.93
2018-11-05T18:38:16.738Z,59.00
2018-11-05T18:40:47.012Z,60.70
2018-11-05T18:43:17.273Z,60.13
2018-11-05T18:45:47.355Z,60.03
2018-11-05T18:48:17.882Z,60.10
2018-11-05T18:50:47.812Z,68.70
2018-11-05T18:53:18.727Z,74.83
2018-11-05T18:55:49.020Z,82.10
2018-11-05T18:58:19.235Z,83.43
2018-11-05T19:00:49.634Z,81.93
2018-11-05T19:03:21.190Z,76.20
2018-11-05T19:05:52.519Z,72.00
2018-11-05T19:08:22.740Z,70.33
2018-11-05T19:10:53.507Z,68.03
2018-11-05T19:13:23.751Z,69.77
2018-11-05T19:15:53.905Z,68.77
2018-11-05T19:18:24.061Z,67.40
2018-11-05T19:20:54.402Z,65.33
2018-11-05T19:23:24.977Z,67.63
2018-11-05T19:25:55.375Z,67.20
2018-11-05T19:28:25.690Z,73.00
2018-11-05T19:30:56.149Z,72.83
2018-11-05T19:33:26.687Z,70.80
2018-11-05T19:35:56.856Z,67.33
2018-11-05T19:38:27.676Z,66.47
2018-11-05T19:40:58.066Z,70.57
2018-11-05T19:43:28.050Z,69.27
2018-11-05T19:45:58.639Z,67.73
2018-11-05T19:48:28.780Z,78.33
2018-11-05T19:50:59.809Z,76.40
2018-11-05T19:53:29.898Z,71.53
2018-11-05T19:56:00.172Z,70.97
2018-11-05T19:58:30.895Z,71.27
2018-11-05T20:01:01.241Z,72.63
2018-11-05T20:03:32.458Z,76.03
2018-11-05T20:06:02.629Z,80.00
2018-11-05T20:08:33.346Z,78.27
2018-11-05T20:11:03.596Z,80.83
2018-11-05T20:13:33.846Z,75.83
2018-11-05T20:16:04.151Z,81.30
2018-11-05T20:18:34.264Z,79.87
2018-11-05T20:21:04.833Z,79.20
2018-11-05T20:23:35.080Z,72.73
2018-11-05T20:26:05.811Z,72.10
2018-11-05T20:28:36.914Z,69.97
2018-11-05T20:31:07.634Z,74.67
2018-11-05T20:33:38.473Z,72.60
2018-11-05T20:36:08.839Z,75.37
2018-11-05T20:38:39.329Z,76.80
2018-11-05T20:41:09.303Z,76.47
2018-11-05T20:43:40.196Z,73.60
2018-11-05T20:46:10.428Z,70.07
2018-11-05T20:48:40.995Z,74.10
2018-11-05T20:51:10.864Z,71.50
2018-11-05T20:53:40.987Z,72.57
2018-11-05T20:56:11.351Z,69.80
2018-11-05T20:58:41.611Z,70.40
2018-11-05T21:01:11.933Z,68.57
2018-11-05T21:03:42.036Z,64.73
2018-11-05T21:06:12.281Z,63.40
2018-11-05T21:08:43.221Z,63.40
2018-11-05T21:11:13.890Z,64.53
2018-11-05T21:13:44.068Z,66.73
2018-11-05T21:16:14.647Z,71.00
2018-11-05T21:18:44.691Z,72.60
2018-11-05T21:21:15.164Z,74.10
2018-11-05T21:23:45.239Z,70.90
2018-11-05T21:26:15.983Z,70.57
2018-11-05T21:28:46.960Z,70.67
2018-11-05T21:31:17.504Z,69.37
2018-11-05T21:33:48.240Z,72.23
2018-11-05T21:36:18.734Z,72.20
2018-11-05T21:38:49.091Z,67.77
2018-11-05T21:41:19.114Z,65.07
2018-11-05T21:43:49.632Z,64.87
2018-11-05T21:46:20.801Z,64.17
2018-11-05T21:48:51.860Z,65.57
2018-11-05T21:51:22.462Z,66.03
2018-11-05T21:53:52.704Z,64.43
2018-11-05T21:56:23.092Z,64.77
2018-11-05T21:58:53.370Z,64.83
2018-11-05T22:01:26.275Z,63.43
2018-11-05T22:03:56.623Z,62.70
2018-11-05T22:06:26.849Z,60.97
2018-11-05T22:08:57.124Z,60.73
2018-11-05T22:11:27.207Z,59.33
2018-11-05T22:13:57.557Z,60.20
2018-11-05T22:16:27.666Z,58.07
2018-11-05T22:18:57.715Z,60.43
2018-11-05T22:21:29.443Z,61.73
2018-11-05T22:24:06.912Z,65.13
2018-11-05T22:26:37.109Z,60.67
2018-11-05T22:29:07.366Z,57.97
2018-11-05T22:31:39.638Z,60.07
2018-11-05T22:34:09.921Z,57.30
2018-11-05T22:36:40.657Z,56.93
2018-11-05T22:39:11.290Z,58.47
2018-11-05T22:41:41.638Z,59.30
2018-11-05T22:44:11.754Z,61.63
2018-11-05T22:46:41.951Z,60.40
2018-11-05T22:49:12.262Z,61.20
2018-11-05T22:51:43.343Z,63.63
2018-11-05T22:54:20.238Z,60.97
2018-11-05T22:56:50.546Z,59.83
2018-11-05T22:59:20.800Z,58.23
2018-11-05T23:01:53.524Z,59.13
2018-11-05T23:04:23.702Z,58.73
2018-11-05T23:06:54.046Z,58.57
2018-11-05T23:09:24.098Z,58.77
2018-11-05T23:11:54.222Z,57.83
2018-11-05T23:14:24.328Z,57.57
2018-11-05T23:16:54.465Z,57.90
2018-11-05T23:19:27.611Z,58.40
2018-11-05T23:21:57.988Z,59.50
2018-11-05T23:24:28.553Z,59.47
2018-11-05T23:26:58.723Z,59.37
2018-11-05T23:29:29.311Z,58.33
2018-11-05T23:31:59.748Z,59.17
2018-11-05T23:34:29.979Z,57.97
2018-11-05T23:37:00.278Z,59.70
2018-11-05T23:39:30.483Z,58.47
2018-11-05T23:42:01.048Z,57.60
2018-11-05T23:44:32.485Z,57.87
2018-11-05T23:47:03.484Z,56.97
2018-11-05T23:49:36.076Z,56.80
2018-11-05T23:52:06.199Z,55.83
2018-11-05T23:54:36.827Z,56.17
2018-11-05T23:57:06.964Z,56.77
2018-11-05T23:59:37.292Z,56.10
